Helmar, Illinois
Current Conditions -  °F | °C
As of 3:55 AM on Sunday 25 Jan 2015 (Local Time) from KC09 Reporting Station
Haze Haze  
Wind Chill: 27°   Ceiling: Unl
Heat Index: 33°   Visibility: 4mi
Dew Point: 33°   Wind: 7mph
Humidity: 99%   Direction: 70°ENE
Pressure: 29.65"   Gusts: NA
Location:  41.5124°N, 88.5214°W
Report Text: KC09 250955Z AUTO 07006KT 4SM BR SCT006 01/01 A2965 RMK AO2 T00080006
Loading
Personal Weather Stations






























Interactive Weather Map New forecast layout! Learn more

10-Day Weather Forecast

Advertisements
Track Severe Weather on mobile